Cairo, Illinois
Current Conditions -  °F | °C
As of 10:55 AM on Monday 22 Dec 2014 (Local Time) from KCIR Reporting Station
Drizzle Drizzle  
Wind Chill: 51°   Ceiling: 800
Heat Index: 51°   Visibility: 2.5mi
Dew Point: 51°   Wind: 9mph
Humidity: 100%   Direction: 140°SE
Pressure: 29.77"   Gusts: NA
Location:  37.01°N, 89.18°W
Report Text: KCIR 221655Z AUTO 14008KT 2 1/2SM DZ OVC008 11/11 A2977 RMK AO2 T01050105
Loading
Personal Weather Stations






























Interactive Weather Map New forecast layout! Learn more

10-Day Weather Forecast

Advertisements
Track Severe Weather on mobile